Terminal Aerodrome Forecast
Issued by NWS Charleston, WV

Current Version | Previous Version | Text Only | Print | Product List | Glossary Off
Versions: 1 2 3 4 5 6 7 8 9 10 11 12 13 14 15 16

000
FTUS41 KRLX 241100
TAFPKB
TAF
KPKB 241120Z 2412/2512 13004KT P6SM OVC080
     FM241600 16007G15KT P6SM BKN045
     FM242000 17009G18KT 3SM SHRA BR VCTS BKN035CB
     FM250000 20018G40KT P6SM OVC035
     FM250100 24015G28KT P6SM BKN035
     FM250900 23011G25KT 6SM BR BKN020=

USA.gov is the U.S. government's official web portal to all federal, state and local government web resources and services.